createdAt,value
2018-11-14T00:00:42.255Z,8.00
2018-11-14T00:03:45.344Z,8.00
2018-11-14T00:06:48.444Z,8.10
2018-11-14T00:09:51.527Z,8.00
2018-11-14T00:12:54.616Z,7.90
2018-11-14T00:15:57.724Z,7.90
2018-11-14T00:19:00.793Z,8.00
2018-11-14T00:22:03.865Z,8.00
2018-11-14T00:25:07.204Z,8.00
2018-11-14T00:28:10.258Z,8.00
2018-11-14T00:31:13.350Z,8.10
2018-11-14T00:34:16.414Z,8.20
2018-11-14T00:37:19.541Z,8.20
2018-11-14T00:40:22.609Z,8.20
2018-11-14T00:43:25.678Z,8.20
2018-11-14T00:46:28.767Z,8.30
2018-11-14T00:49:31.830Z,8.30
2018-11-14T00:52:34.925Z,8.40
2018-11-14T00:55:38.014Z,8.30
2018-11-14T00:58:41.070Z,8.30
2018-11-14T01:01:44.216Z,8.30
2018-11-14T01:04:47.230Z,8.30
2018-11-14T01:07:50.304Z,8.30
2018-11-14T01:10:53.397Z,8.40
2018-11-14T01:13:56.451Z,8.40
2018-11-14T01:16:59.514Z,8.50
2018-11-14T01:20:02.602Z,8.40
2018-11-14T01:23:06.161Z,8.40
2018-11-14T01:29:12.354Z,8.40
2018-11-14T01:32:15.530Z,8.30
2018-11-14T01:35:19.043Z,8.20
2018-11-14T01:38:22.114Z,8.10
2018-11-14T01:41:25.173Z,8.00
2018-11-14T01:44:28.250Z,7.90
2018-11-14T01:47:31.598Z,7.80
2018-11-14T01:50:34.661Z,7.70
2018-11-14T01:53:37.746Z,7.70
2018-11-14T01:56:40.834Z,7.60
2018-11-14T01:59:43.919Z,7.50
2018-11-14T02:02:47.026Z,7.50
2018-11-14T02:05:50.118Z,7.30
2018-11-14T02:08:53.186Z,7.30
2018-11-14T02:11:56.279Z,7.30
2018-11-14T02:14:59.342Z,7.30
2018-11-14T02:18:12.570Z,7.40
2018-11-14T02:21:15.637Z,7.40
2018-11-14T02:24:18.722Z,7.50
2018-11-14T02:27:21.800Z,7.50
2018-11-14T02:30:24.923Z,7.50
2018-11-14T02:33:27.993Z,7.60
2018-11-14T02:36:31.054Z,7.70
2018-11-14T02:39:34.155Z,7.70
2018-11-14T02:42:37.243Z,7.60
2018-11-14T02:45:40.326Z,7.60
2018-11-14T02:48:43.382Z,7.50
2018-11-14T02:51:46.458Z,7.40
2018-11-14T02:54:49.545Z,7.40
2018-11-14T02:57:52.631Z,7.20
2018-11-14T03:00:55.713Z,7.20
2018-11-14T03:03:58.778Z,7.30
2018-11-14T03:07:01.876Z,7.20
2018-11-14T03:10:07.223Z,7.20
2018-11-14T03:13:10.301Z,7.20
2018-11-14T03:16:13.381Z,7.20
2018-11-14T03:19:16.467Z,7.30
2018-11-14T03:22:19.548Z,7.30
2018-11-14T03:25:22.632Z,7.10
2018-11-14T03:28:25.786Z,7.00
2018-11-14T03:31:28.863Z,7.00
2018-11-14T03:34:31.956Z,6.90
2018-11-14T03:37:35.046Z,6.90
2018-11-14T03:40:38.144Z,7.00
2018-11-14T03:43:41.225Z,7.10
2018-11-14T03:46:44.347Z,7.20
2018-11-14T03:49:47.412Z,7.30
2018-11-14T03:52:50.479Z,7.40
2018-11-14T03:55:53.569Z,7.50
2018-11-14T03:58:56.685Z,7.50
2018-11-14T04:01:59.753Z,7.50
2018-11-14T04:05:02.950Z,7.40
2018-11-14T04:08:06.390Z,7.50
2018-11-14T04:11:09.484Z,7.40
2018-11-14T04:14:12.563Z,7.40
2018-11-14T04:17:15.695Z,7.40
2018-11-14T04:20:18.788Z,7.40
2018-11-14T04:23:21.861Z,7.40
2018-11-14T04:26:24.930Z,7.30
2018-11-14T04:29:28.030Z,7.30
2018-11-14T04:32:37.897Z,7.40
2018-11-14T04:35:40.994Z,7.40
2018-11-14T04:38:44.054Z,7.50
2018-11-14T04:41:47.159Z,7.50
2018-11-14T04:44:50.270Z,7.50
2018-11-14T04:47:53.545Z,7.50
2018-11-14T04:50:56.625Z,7.50
2018-11-14T04:53:59.711Z,7.60
2018-11-14T04:57:03.033Z,7.60
2018-11-14T05:00:06.914Z,7.60
2018-11-14T05:03:10.042Z,7.60
2018-11-14T05:06:13.121Z,7.60
2018-11-14T05:09:16.217Z,7.60
2018-11-14T05:12:19.323Z,7.60
2018-11-14T05:15:23.628Z,7.50
2018-11-14T05:18:26.725Z,7.50
2018-11-14T05:21:29.794Z,7.40
2018-11-14T05:24:32.963Z,7.30
2018-11-14T05:27:35.966Z,7.20
2018-11-14T05:30:39.063Z,7.10
2018-11-14T05:33:42.158Z,7.00
2018-11-14T05:36:45.218Z,6.90
2018-11-14T05:39:48.416Z,6.90
2018-11-14T05:42:52.060Z,6.90
2018-11-14T05:45:55.138Z,7.00
2018-11-14T05:48:58.205Z,7.10
2018-11-14T05:52:01.311Z,7.20
2018-11-14T05:55:05.317Z,7.20
2018-11-14T05:58:08.354Z,7.20
2018-11-14T06:01:11.446Z,7.20
2018-11-14T06:04:14.497Z,7.10
2018-11-14T06:07:17.651Z,7.10
2018-11-14T06:10:20.658Z,7.10
2018-11-14T06:13:23.746Z,7.10
2018-11-14T06:16:26.843Z,7.20
2018-11-14T06:19:29.914Z,7.30
2018-11-14T06:22:33.002Z,7.30
2018-11-14T06:25:37.293Z,7.30
2018-11-14T06:28:40.366Z,7.30
2018-11-14T06:31:43.458Z,7.40
2018-11-14T06:34:46.561Z,7.40
2018-11-14T06:37:50.372Z,7.40
2018-11-14T06:40:53.505Z,7.50
2018-11-14T06:43:56.591Z,7.50
2018-11-14T06:46:59.701Z,7.50
2018-11-14T06:50:03.085Z,7.50
2018-11-14T06:53:06.942Z,7.50
2018-11-14T06:56:10.017Z,7.60
2018-11-14T06:59:13.215Z,7.60
2018-11-14T07:02:38.336Z,7.70
2018-11-14T07:05:36.472Z,7.70
2018-11-14T07:08:39.494Z,7.80
2018-11-14T07:11:42.587Z,7.80
2018-11-14T07:14:45.694Z,7.80
2018-11-14T07:17:49.720Z,7.80
2018-11-14T07:20:52.801Z,7.90
2018-11-14T07:23:55.865Z,8.00
2018-11-14T07:26:58.997Z,8.00
2018-11-14T07:30:02.089Z,8.10
2018-11-14T07:33:07.338Z,8.10
2018-11-14T07:36:10.421Z,8.20
2018-11-14T07:39:14.145Z,8.20
2018-11-14T07:42:17.270Z,8.20
2018-11-14T07:45:20.377Z,8.30
2018-11-14T07:48:23.457Z,8.30
2018-11-14T07:51:26.613Z,8.40
2018-11-14T07:54:29.691Z,8.40
2018-11-14T07:57:32.769Z,8.60
2018-11-14T08:00:35.842Z,8.70
2018-11-14T08:03:38.929Z,8.70
2018-11-14T08:06:41.989Z,8.80
2018-11-14T08:09:45.078Z,8.90
2018-11-14T08:12:48.138Z,9.10
2018-11-14T08:15:52.865Z,9.30
2018-11-14T08:18:56.027Z,9.40
2018-11-14T08:21:59.038Z,9.70
2018-11-14T08:25:02.262Z,10.10
2018-11-14T08:28:05.259Z,10.60
2018-11-14T08:31:08.362Z,10.80
2018-11-14T08:34:11.453Z,10.90
2018-11-14T08:37:14.582Z,11.10
2018-11-14T08:40:17.662Z,11.20
2018-11-14T08:43:20.782Z,11.40
2018-11-14T08:46:23.858Z,11.50
2018-11-14T08:49:26.963Z,11.60
2018-11-14T08:52:30.022Z,11.50
2018-11-14T08:55:34.230Z,11.40
2018-11-14T08:58:37.322Z,11.20
2018-11-14T09:01:40.414Z,11.10
2018-11-14T09:04:43.530Z,11.00
2018-11-14T09:07:46.709Z,10.90
2018-11-14T09:10:49.857Z,10.90
2018-11-14T09:13:52.923Z,11.00
2018-11-14T09:16:56.102Z,11.30
2018-11-14T09:19:59.178Z,11.50
2018-11-14T09:23:02.332Z,11.70
2018-11-14T09:26:05.665Z,11.90
2018-11-14T09:29:09.453Z,11.90
2018-11-14T09:32:12.539Z,11.80
2018-11-14T09:35:16.818Z,12.00
2018-11-14T09:38:19.882Z,12.20
2018-11-14T09:41:23.085Z,12.30
2018-11-14T09:44:26.176Z,12.50
2018-11-14T09:47:29.237Z,12.50
2018-11-14T09:50:32.770Z,12.70
2018-11-14T09:53:35.883Z,12.80
2018-11-14T09:56:38.998Z,12.90
2018-11-14T09:59:42.065Z,12.90
2018-11-14T10:02:45.726Z,12.90
2018-11-14T10:05:48.916Z,12.90
2018-11-14T10:08:52.042Z,13.00
2018-11-14T10:11:55.117Z,13.10
2018-11-14T10:14:58.225Z,12.90
2018-11-14T10:18:01.326Z,12.80
2018-11-14T10:21:04.906Z,12.80
2018-11-14T10:24:07.988Z,12.70
2018-11-14T10:27:11.106Z,12.60
2018-11-14T10:30:19.342Z,12.60
2018-11-14T10:33:22.398Z,12.50
2018-11-14T10:36:25.601Z,12.50
2018-11-14T10:39:28.705Z,12.50
2018-11-14T10:42:31.786Z,12.40
2018-11-14T10:45:34.906Z,12.10
2018-11-14T10:48:37.997Z,12.00
2018-11-14T10:51:41.126Z,11.90
2018-11-14T10:54:44.180Z,12.00
2018-11-14T10:57:47.397Z,12.00
2018-11-14T11:00:55.767Z,12.10
2018-11-14T11:04:04.093Z,12.10
2018-11-14T11:07:12.406Z,12.20
2018-11-14T11:10:20.979Z,12.40
2018-11-14T11:13:29.705Z,12.50
2018-11-14T11:16:32.802Z,12.60
2018-11-14T11:19:35.902Z,12.50
2018-11-14T11:22:38.998Z,12.50
2018-11-14T11:25:42.283Z,12.50
2018-11-14T11:28:45.382Z,12.30
2018-11-14T11:31:48.501Z,12.20
2018-11-14T11:34:51.566Z,12.10
2018-11-14T11:37:54.650Z,12.00
2018-11-14T11:40:57.746Z,11.90
2018-11-14T11:44:00.824Z,11.80
2018-11-14T11:47:03.901Z,11.70
2018-11-14T11:50:07.161Z,11.70
2018-11-14T11:53:10.262Z,11.60
2018-11-14T11:56:13.331Z,11.50
2018-11-14T11:59:16.413Z,11.40
2018-11-14T12:02:19.570Z,11.40
2018-11-14T12:05:22.589Z,11.30
2018-11-14T12:08:25.654Z,11.30
2018-11-14T12:11:28.757Z,11.20
2018-11-14T12:14:31.809Z,11.10
2018-11-14T12:17:34.948Z,11.00
2018-11-14T12:20:37.998Z,11.00
2018-11-14T12:23:41.164Z,11.10
2018-11-14T12:26:44.192Z,11.10
2018-11-14T12:29:47.321Z,11.20
2018-11-14T12:32:50.364Z,11.20
2018-11-14T12:35:53.445Z,11.20
2018-11-14T12:38:56.583Z,11.20
2018-11-14T12:41:59.597Z,11.20
2018-11-14T12:45:02.731Z,11.20
2018-11-14T12:48:05.841Z,11.20
2018-11-14T12:51:08.930Z,11.20
2018-11-14T12:54:12.039Z,11.20
2018-11-14T12:57:32.450Z,11.20
2018-11-14T13:00:35.522Z,11.20
2018-11-14T13:03:38.609Z,11.20
2018-11-14T13:06:41.682Z,11.20
2018-11-14T13:09:44.778Z,11.20
2018-11-14T13:12:48.944Z,11.30
2018-11-14T13:15:55.726Z,11.30
2018-11-14T13:22:30.028Z,11.30
2018-11-14T13:25:33.149Z,11.20
2018-11-14T13:28:46.519Z,11.20
2018-11-14T13:31:50.650Z,11.20
2018-11-14T13:34:53.743Z,11.20
2018-11-14T13:37:56.879Z,11.10
2018-11-14T13:41:00.233Z,11.00
2018-11-14T13:44:03.301Z,11.00
2018-11-14T13:47:09.806Z,10.90
2018-11-14T13:50:18.953Z,10.90
2018-11-14T13:53:21.886Z,10.90
2018-11-14T13:56:25.015Z,10.90
2018-11-14T13:59:28.115Z,10.90
2018-11-14T14:02:31.202Z,10.80
2018-11-14T14:05:44.597Z,10.80
2018-11-14T14:08:52.465Z,10.70
2018-11-14T14:12:05.654Z,10.60
2018-11-14T14:15:32.232Z,10.50
2018-11-14T14:18:35.401Z,10.40
2018-11-14T14:21:38.751Z,10.40
2018-11-14T14:24:50.026Z,10.30
2018-11-14T14:27:53.121Z,10.30
2018-11-14T14:30:58.336Z,10.30
2018-11-14T14:34:01.394Z,10.20
2018-11-14T14:37:04.565Z,10.20
2018-11-14T14:40:18.511Z,10.20
2018-11-14T14:43:21.620Z,10.10
2018-11-14T14:46:27.986Z,10.00
2018-11-14T14:49:31.114Z,9.90
2018-11-14T14:52:50.978Z,9.90
2018-11-14T14:55:54.609Z,9.80
2018-11-14T14:59:04.230Z,9.60
2018-11-14T15:02:08.062Z,9.40
2018-11-14T15:05:12.579Z,9.30
2018-11-14T15:08:16.224Z,9.10
2018-11-14T15:11:19.856Z,9.00
2018-11-14T15:14:23.497Z,8.90
2018-11-14T15:17:26.831Z,8.80
2018-11-14T15:20:29.971Z,8.70
2018-11-14T15:23:33.458Z,8.60
2018-11-14T15:26:36.970Z,8.50
2018-11-14T15:29:40.779Z,8.40
2018-11-14T15:33:02.884Z,8.30
2018-11-14T15:36:06.970Z,8.20
2018-11-14T15:39:12.193Z,8.00
2018-11-14T15:42:15.560Z,8.00
2018-11-14T15:45:21.326Z,8.00
2018-11-14T15:48:24.971Z,7.90
2018-11-14T15:51:28.155Z,7.80
2018-11-14T15:54:31.538Z,7.70
2018-11-14T15:57:35.187Z,7.70
2018-11-14T16:00:38.896Z,7.60
2018-11-14T16:03:42.228Z,7.50
2018-11-14T16:06:45.354Z,7.40
2018-11-14T16:09:48.998Z,7.40
2018-11-14T16:12:52.123Z,7.30
2018-11-14T16:15:55.647Z,7.20
2018-11-14T16:18:59.402Z,7.10
2018-11-14T16:22:10.962Z,7.10
2018-11-14T16:25:19.400Z,7.10
2018-11-14T16:28:26.182Z,7.00
2018-11-14T16:31:36.566Z,7.10
2018-11-14T16:34:43.407Z,7.10
2018-11-14T16:41:32.953Z,7.10
2018-11-14T16:44:42.273Z,7.00
2018-11-14T16:47:45.278Z,7.10
2018-11-14T16:50:48.362Z,7.10
2018-11-14T16:54:08.407Z,7.10
2018-11-14T16:57:36.464Z,7.20
2018-11-14T17:00:41.184Z,7.10
2018-11-14T17:04:01.142Z,7.20
2018-11-14T17:07:11.705Z,7.20
2018-11-14T17:10:17.108Z,7.20
2018-11-14T17:13:20.198Z,7.20
2018-11-14T17:16:23.322Z,7.20
2018-11-14T17:22:55.398Z,7.30
2018-11-14T17:26:00.603Z,7.20
2018-11-14T17:29:07.778Z,7.30
2018-11-14T17:32:10.939Z,7.20
2018-11-14T17:35:37.721Z,7.20
2018-11-14T17:38:51.713Z,7.20
2018-11-14T17:41:58.293Z,7.20
2018-11-14T17:45:08.374Z,7.20
2018-11-14T17:48:11.551Z,7.10
2018-11-14T17:51:33.725Z,7.10
2018-11-14T17:54:41.989Z,7.10
2018-11-14T17:57:45.113Z,7.00
2018-11-14T18:00:58.320Z,7.10
2018-11-14T18:04:13.855Z,7.00
2018-11-14T18:07:34.629Z,7.00
2018-11-14T18:10:37.826Z,7.10
2018-11-14T18:13:57.506Z,7.10
2018-11-14T18:17:00.598Z,7.10
2018-11-14T18:20:23.506Z,7.10
2018-11-14T18:23:27.718Z,7.10
2018-11-14T18:26:47.981Z,7.00
2018-11-14T18:29:51.050Z,7.00
2018-11-14T18:32:55.017Z,6.90
2018-11-14T18:35:58.161Z,6.90
2018-11-14T18:39:01.249Z,6.90
2018-11-14T18:42:28.535Z,6.90
2018-11-14T18:45:45.002Z,6.80
2018-11-14T18:48:48.146Z,6.70
2018-11-14T18:52:03.697Z,6.80
2018-11-14T18:55:12.578Z,6.80
2018-11-14T18:58:20.335Z,6.80
2018-11-14T19:01:24.433Z,6.70
2018-11-14T19:04:27.610Z,6.70
2018-11-14T19:07:38.306Z,6.70
2018-11-14T19:10:51.147Z,6.60
2018-11-14T19:14:05.964Z,6.60
2018-11-14T19:17:18.895Z,6.60
2018-11-14T19:20:26.349Z,6.60
2018-11-14T19:23:29.487Z,6.50
2018-11-14T19:26:32.702Z,6.50
2018-11-14T19:29:36.787Z,6.50
2018-11-14T19:32:57.270Z,6.50
2018-11-14T19:36:01.422Z,6.50
2018-11-14T19:39:11.298Z,6.60
2018-11-14T19:42:18.081Z,6.50
2018-11-14T19:45:27.209Z,6.40
2018-11-14T19:48:37.230Z,6.10
2018-11-14T19:51:50.979Z,5.90
2018-11-14T19:55:03.907Z,5.80
2018-11-14T19:58:07.985Z,5.80
2018-11-14T20:01:21.618Z,5.70
2018-11-14T20:04:34.443Z,5.70
2018-11-14T20:07:37.822Z,5.60
2018-11-14T20:10:44.535Z,5.70
2018-11-14T20:13:47.758Z,5.70
2018-11-14T20:16:51.933Z,5.70
2018-11-14T20:19:56.084Z,5.80
2018-11-14T20:23:12.181Z,5.80
2018-11-14T20:26:22.690Z,5.70
2018-11-14T20:29:37.542Z,5.80
2018-11-14T20:32:40.754Z,5.90
2018-11-14T20:35:49.622Z,6.00
2018-11-14T20:39:06.745Z,6.10
2018-11-14T20:42:11.893Z,6.20
2018-11-14T20:45:25.046Z,6.10
2018-11-14T20:48:30.186Z,6.20
2018-11-14T20:51:33.474Z,6.20
2018-11-14T20:58:11.010Z,6.20
2018-11-14T21:01:14.121Z,6.20
2018-11-14T21:04:18.242Z,6.30
2018-11-14T21:07:27.435Z,6.40
2018-11-14T21:10:35.143Z,6.40
2018-11-14T21:13:41.382Z,6.50
2018-11-14T21:16:56.622Z,6.50
2018-11-14T21:20:06.394Z,6.60
2018-11-14T21:23:21.309Z,6.60
2018-11-14T21:26:24.838Z,6.60
2018-11-14T21:29:40.025Z,6.60
2018-11-14T21:32:54.957Z,6.60
2018-11-14T21:36:05.039Z,6.60
2018-11-14T21:39:19.909Z,6.50
2018-11-14T21:42:27.487Z,6.50
2018-11-14T21:45:30.895Z,6.50
2018-11-14T21:48:34.686Z,6.50
2018-11-14T21:51:37.985Z,6.50
2018-11-14T21:54:41.077Z,6.60
2018-11-14T21:57:44.194Z,6.60
2018-11-14T22:00:47.259Z,6.50
2018-11-14T22:03:50.370Z,6.50
2018-11-14T22:06:53.482Z,6.50
2018-11-14T22:09:56.572Z,6.50
2018-11-14T22:12:59.675Z,6.50
2018-11-14T22:16:02.741Z,6.40
2018-11-14T22:19:22.739Z,6.40
2018-11-14T22:22:25.753Z,6.40
2018-11-14T22:25:29.621Z,6.40
2018-11-14T22:28:32.681Z,6.40
2018-11-14T22:35:11.907Z,6.40
2018-11-14T22:38:14.945Z,6.40
2018-11-14T22:41:18.018Z,6.40
2018-11-14T22:44:21.121Z,6.40
2018-11-14T22:47:24.208Z,6.40
2018-11-14T22:50:27.613Z,6.40
2018-11-14T22:53:30.678Z,6.40
2018-11-14T22:56:33.785Z,6.40
2018-11-14T22:59:36.856Z,6.40
2018-11-14T23:02:39.958Z,6.40
2018-11-14T23:05:43.066Z,6.40
2018-11-14T23:08:46.161Z,6.40
2018-11-14T23:11:49.271Z,6.40
2018-11-14T23:14:52.365Z,6.40
2018-11-14T23:17:55.437Z,6.40
2018-11-14T23:20:58.534Z,6.30
2018-11-14T23:24:01.657Z,6.30
2018-11-14T23:27:04.777Z,6.30
2018-11-14T23:30:09.544Z,6.30
2018-11-14T23:33:12.629Z,6.30
2018-11-14T23:36:15.743Z,6.30
2018-11-14T23:39:18.837Z,6.30
2018-11-14T23:42:21.964Z,6.30
2018-11-14T23:45:25.814Z,6.30
2018-11-14T23:48:28.893Z,6.30
2018-11-14T23:51:32.001Z,6.30
2018-11-14T23:54:35.071Z,6.30
2018-11-14T23:57:38.590Z,6.30
